Kezdőlap
METAR-TAF:

METAR-TAF

Repülőterek :

St. Paul Downtown Airport (Holman Field)

Saint Paul, Minnesota, Amerikai Egyesült Államok

földrajzi szélesség: 44-55-49N, földrajzi hosszúság: 093-02-53W, magasság: 214 m

Jelenlegi meteorológiai megfigyelések

A jelentés 38 perccel ezelõtt készült, 10:53 UTC
Északi szél 3 kt
Hőmérséklet 1°C
Páratartalom 80%
Légköri nyomás 1019 hPa
Látótávolság: 16.1 km
Derült ég

METAR: KSTP 231053Z AUTO 36003KT 10SM CLR 01/M02 A3010 RMK AO2 SLP198 T00061017

Idő: 06:31 (11:31 UTC)


TAF: hiányzik

Meteorológiai megfigyelések és előrejelzések több, mint 4000 repülőtéren (METAR és TAF jelentéseket).

A térképen piros és sárga pontok jelzik az elérhető meteorológiai állomásokat.

Mozgassa az egeret a pont fölött, hogy megjelenjen az állomás neve.

Azután kattintson az időjárási megfigyelések és előrejelzések megtekintéséhez.

A térkép megváltoztatása: kattintson a fekete keresztel jelölt zöld gombra ráközelítéshez, a vonallal jelölt zöld gombra távolításhoz, vagy a zöld nyilakra a szomszédos térképek eléréséhez.


METAR-TAF: